Time;durP1;ratioP1;P1;durP2;ratioP2;P2;SDS_P1;SDS_P2;PMS_P1;PMS_P2;Temp;Humidity;BMP_temperature;BMP_pressure;BME280_temperature;BME280_humidity;BME280_pressure;Samples;Min_cycle;Max_cycle;Signal;HPM_P1;HPM_P2
2023/03/30 00:00:35;;;;;;;2.53;1.58;;;;;;;12.37;91.18;100524.91;5106311;27;20446;-66
2023/03/30 00:03:01;;;;;;;1.40;1.20;;;;;;;12.37;89.84;100527.69;5130140;27;20031;-64
2023/03/30 00:05:28;;;;;;;2.55;1.40;;;;;;;12.41;89.64;100534.31;5131259;27;20019;-66
2023/03/30 00:07:53;;;;;;;2.15;1.48;;;;;;;12.38;90.26;100520.25;5129547;27;20477;-70
2023/03/30 00:10:19;;;;;;;3.40;1.70;;;;;;;12.39;89.46;100513.66;5130944;27;20075;-70
2023/03/30 00:12:51;;;;;;;3.65;1.63;;;;;;;12.42;88.54;100502.97;5129387;27;20031;-69
2023/03/30 00:15:20;;;;;;;2.35;1.60;;;;;;;12.45;88.85;100496.94;5129072;27;20023;-70
2023/03/30 00:17:45;;;;;;;2.53;1.50;;;;;;;12.49;88.10;100489.00;5130244;27;20395;-66
2023/03/30 00:20:15;;;;;;;2.92;1.40;;;;;;;12.49;87.27;100488.19;5129909;27;20106;-69
2023/03/30 00:22:42;;;;;;;2.60;1.40;;;;;;;12.48;86.91;100494.78;5130061;27;20046;-70
2023/03/30 00:25:10;;;;;;;3.38;1.40;;;;;;;12.45;87.08;100479.59;5129264;27;20480;-64
2023/03/30 00:27:36;;;;;;;2.10;1.38;;;;;;;12.46;87.51;100492.25;5130002;27;20165;-67
2023/03/30 00:30:14;;;;;;;3.38;1.42;;;;;;;12.56;86.23;100495.16;5110347;27;20477;-68
2023/03/30 00:32:40;;;;;;;2.90;1.27;;;;;;;12.62;85.43;100494.19;5129108;27;20037;-63
2023/03/30 00:35:06;;;;;;;2.35;1.40;;;;;;;12.68;84.45;100487.66;5129908;27;20027;-69
2023/03/30 00:37:32;;;;;;;2.97;1.45;;;;;;;12.73;84.21;100470.38;5129006;27;20035;-67
2023/03/30 00:39:57;;;;;;;2.70;1.40;;;;;;;12.75;83.79;100478.38;5131032;27;20075;-70
2023/03/30 00:42:22;;;;;;;2.92;1.38;;;;;;;12.74;84.13;100480.28;5128787;27;20652;-69
2023/03/30 00:45:09;;;;;;;2.63;1.30;;;;;;;12.75;84.19;100464.59;5127756;27;20038;-69
2023/03/30 00:47:38;;;;;;;2.72;1.27;;;;;;;12.71;84.24;100444.97;5130682;27;20035;-65
2023/03/30 00:50:04;;;;;;;2.90;1.52;;;;;;;12.69;84.18;100436.13;5130847;27;20031;-69
2023/03/30 00:52:32;;;;;;;3.63;1.77;;;;;;;12.67;84.60;100441.91;5128449;27;20377;-69
2023/03/30 00:54:58;;;;;;;3.25;1.55;;;;;;;12.68;83.47;100437.22;5130764;27;20064;-66
2023/03/30 00:57:25;;;;;;;4.00;1.70;;;;;;;12.67;83.76;100436.41;5130512;27;20034;-69
2023/03/30 00:59:53;;;;;;;2.95;1.50;;;;;;;12.66;83.54;100436.63;5128818;27;20035;-66
2023/03/30 01:02:20;;;;;;;2.63;1.42;;;;;;;12.62;83.92;100435.47;5130229;27;20020;-69
2023/03/30 01:04:47;;;;;;;3.25;1.40;;;;;;;12.56;84.48;100430.97;5128772;27;20377;-69
2023/03/30 01:07:14;;;;;;;2.33;1.37;;;;;;;12.55;83.65;100423.81;5128406;27;20023;-69
2023/03/30 01:09:41;;;;;;;2.67;1.33;;;;;;;12.51;84.14;100422.66;5122188;27;20023;-66
2023/03/30 01:12:07;;;;;;;2.72;1.58;;;;;;;12.48;83.97;100425.94;5126658;27;20031;-70
2023/03/30 01:14:32;;;;;;;2.28;1.50;;;;;;;12.47;83.73;100427.84;5127328;27;20098;-68
2023/03/30 01:17:18;;;;;;;2.15;1.38;;;;;;;12.47;84.39;100433.34;5124940;27;20126;-70
2023/03/30 01:20:08;;;;;;;2.30;1.30;;;;;;;12.42;84.81;100431.34;5125395;27;20054;-70
2023/03/30 01:23:00;;;;;;;2.17;1.40;;;;;;;12.35;84.90;100440.88;5129420;27;20122;-67
2023/03/30 01:25:41;;;;;;;3.28;1.30;;;;;;;12.29;85.64;100437.22;5115488;27;20516;-70
2023/03/30 01:28:07;;;;;;;2.90;1.27;;;;;;;12.29;84.78;100442.72;5127866;27;20114;-70
2023/03/30 01:30:53;;;;;;;2.88;1.52;;;;;;;12.26;85.44;100448.72;5128678;27;20126;-70
2023/03/30 01:33:44;;;;;;;2.92;1.40;;;;;;;12.26;85.82;100440.44;5128518;27;20027;-70
2023/03/30 01:36:31;;;;;;;1.65;1.10;;;;;;;12.27;85.68;100419.28;5128711;27;20035;-69
2023/03/30 01:39:24;;;;;;;2.23;1.37;;;;;;;12.31;85.55;100428.69;5128853;27;20038;-70
2023/03/30 01:41:58;;;;;;;2.78;1.40;;;;;;;12.33;85.25;100430.13;5126658;27;20038;-68
2023/03/30 01:44:33;;;;;;;3.03;1.33;;;;;;;12.32;85.69;100409.19;5113053;27;20023;-67
2023/03/30 01:47:24;;;;;;;3.45;1.50;;;;;;;12.30;85.71;100405.81;5128798;27;20023;-70
2023/03/30 01:50:22;;;;;;;2.20;1.25;;;;;;;12.28;85.79;100405.25;5129827;27;20027;-71
2023/03/30 01:53:16;;;;;;;2.13;1.30;;;;;;;12.25;85.94;100402.16;5127207;27;20039;-70
2023/03/30 01:55:56;;;;;;;2.08;1.38;;;;;;;12.18;85.98;100400.44;5121164;27;20043;-64
2023/03/30 01:58:27;;;;;;;2.90;1.33;;;;;;;12.09;87.13;100395.59;5127312;27;20080;-63
2023/03/30 02:00:54;;;;;;;2.85;1.35;;;;;;;12.09;86.47;100406.63;5127723;27;20027;-70
2023/03/30 02:03:26;;;;;;;1.52;1.02;;;;;;;12.11;86.97;100415.44;5126728;27;20094;-71
2023/03/30 02:05:56;;;;;;;2.90;1.30;;;;;;;12.22;86.11;100425.56;5120992;27;20114;-70
2023/03/30 02:08:28;;;;;;;1.98;1.23;;;;;;;12.33;85.93;100413.59;5127948;27;20073;-68
2023/03/30 02:10:57;;;;;;;1.85;1.02;;;;;;;12.39;85.53;100404.31;5128078;27;20027;-69
2023/03/30 02:13:25;;;;;;;2.47;1.10;;;;;;;12.44;85.52;100415.41;5128027;27;20023;-70
2023/03/30 02:16:07;;;;;;;2.58;1.13;;;;;;;12.56;85.66;100418.03;5128438;27;20735;-69
2023/03/30 02:18:32;;;;;;;2.70;1.20;;;;;;;12.68;85.01;100413.25;5117165;27;20062;-68
2023/03/30 02:20:58;;;;;;;2.10;1.10;;;;;;;12.81;84.06;100413.97;5128117;27;20419;-70
2023/03/30 02:23:29;;;;;;;3.22;1.20;;;;;;;12.82;84.21;100418.38;5105410;27;20592;-65
2023/03/30 02:25:56;;;;;;;2.78;1.20;;;;;;;12.90;83.79;100410.50;5126782;27;20019;-69
2023/03/30 02:28:21;;;;;;;3.67;1.15;;;;;;;13.02;82.85;100401.25;5127327;27;20035;-70
2023/03/30 02:30:47;;;;;;;3.15;1.15;;;;;;;13.02;83.56;100415.03;5127436;27;20027;-68
2023/03/30 02:33:21;;;;;;;2.72;1.08;;;;;;;12.96;83.73;100409.47;5127751;27;20024;-68
2023/03/30 02:36:14;;;;;;;2.17;1.10;;;;;;;12.91;84.24;100412.16;5126425;27;20031;-70
2023/03/30 02:38:58;;;;;;;1.73;1.10;;;;;;;13.04;83.64;100410.13;5127366;27;20110;-66
2023/03/30 02:41:56;;;;;;;2.08;1.10;;;;;;;13.12;83.04;100415.16;5128544;27;20031;-67
2023/03/30 02:44:36;;;;;;;2.88;1.13;;;;;;;13.10;82.91;100404.41;5117675;22;20015;-65
2023/03/30 02:47:11;;;;;;;1.58;1.20;;;;;;;13.09;82.94;100410.19;5081825;28;20028;-67
2023/03/30 02:49:58;;;;;;;2.45;1.10;;;;;;;13.11;82.53;100416.25;5084398;28;20035;-64
2023/03/30 02:52:47;;;;;;;2.10;1.17;;;;;;;13.21;82.25;100414.47;5048620;28;20021;-69
2023/03/30 02:55:25;;;;;;;2.63;1.05;;;;;;;13.21;82.07;100414.47;5076166;28;20077;-68
2023/03/30 02:58:02;;;;;;;5.10;1.40;;;;;;;13.23;82.17;100405.97;5084515;28;20030;-66
2023/03/30 03:00:37;;;;;;;2.47;1.27;;;;;;;13.19;81.97;100402.84;5072215;28;20422;-65
2023/03/30 03:03:12;;;;;;;3.03;1.30;;;;;;;13.21;82.02;100413.63;5086416;28;20024;-69
2023/03/30 03:05:38;;;;;;;2.85;1.00;;;;;;;13.22;81.45;100410.63;5084731;28;20035;-69
2023/03/30 03:08:04;;;;;;;1.80;1.17;;;;;;;13.19;82.13;100411.13;5085972;28;20024;-70
2023/03/30 03:10:30;;;;;;;1.58;1.08;;;;;;;13.15;82.92;100400.88;5086950;28;20032;-70
2023/03/30 03:12:55;;;;;;;2.50;1.02;;;;;;;13.12;83.42;100409.66;5086161;28;20024;-70
2023/03/30 03:15:21;;;;;;;2.97;1.52;;;;;;;13.12;82.03;100407.72;5085756;28;20040;-67
2023/03/30 03:17:46;;;;;;;3.67;1.60;;;;;;;13.10;82.39;100406.31;5085295;28;20036;-69
2023/03/30 03:20:12;;;;;;;3.30;1.50;;;;;;;13.08;83.04;100409.34;5086264;28;20027;-68
2023/03/30 03:22:37;;;;;;;2.40;1.38;;;;;;;13.05;83.03;100407.09;5085619;28;20054;-70
2023/03/30 03:25:04;;;;;;;3.47;1.30;;;;;;;13.07;82.59;100417.84;5085772;28;20081;-68
2023/03/30 03:27:30;;;;;;;3.35;1.10;;;;;;;13.06;82.99;100413.44;5084806;28;20035;-70
2023/03/30 03:29:56;;;;;;;3.00;1.30;;;;;;;13.04;83.06;100408.19;5073435;28;20056;-70
2023/03/30 03:32:22;;;;;;;3.63;1.33;;;;;;;13.02;83.43;100406.78;5084484;28;20074;-70
2023/03/30 03:34:47;;;;;;;2.83;1.15;;;;;;;13.01;83.32;100396.84;5085931;28;20032;-69
2023/03/30 03:37:12;;;;;;;1.45;1.17;;;;;;;12.99;82.84;100392.41;5085836;28;20549;-67
2023/03/30 03:39:38;;;;;;;1.90;1.13;;;;;;;12.98;83.37;100399.03;5085944;28;20028;-69
2023/03/30 03:42:04;;;;;;;2.28;1.20;;;;;;;12.96;83.92;100383.81;5086831;28;20346;-64
2023/03/30 03:44:30;;;;;;;3.17;1.23;;;;;;;12.93;83.29;100370.56;5085445;28;20047;-69
2023/03/30 03:46:55;;;;;;;3.17;1.33;;;;;;;12.94;83.52;100372.25;5085609;28;20047;-66
2023/03/30 03:49:21;;;;;;;1.65;1.20;;;;;;;12.95;83.14;100371.97;5085409;28;20177;-67
2023/03/30 03:51:46;;;;;;;1.92;1.30;;;;;;;12.92;83.71;100378.00;5086200;28;20089;-66
2023/03/30 03:54:11;;;;;;;2.90;1.33;;;;;;;12.92;83.71;100379.91;5086122;28;20167;-69
2023/03/30 03:56:37;;;;;;;2.60;1.20;;;;;;;12.89;83.63;100380.44;5085941;28;20085;-65
2023/03/30 03:59:03;;;;;;;2.05;1.20;;;;;;;12.88;84.23;100373.28;5084689;28;20025;-69
2023/03/30 04:01:29;;;;;;;2.97;1.20;;;;;;;12.87;84.18;100377.09;5084079;28;20063;-69
2023/03/30 04:03:55;;;;;;;3.33;1.13;;;;;;;12.79;84.60;100370.13;5083386;28;20028;-68
2023/03/30 04:06:20;;;;;;;1.13;1.02;;;;;;;12.73;84.94;100377.50;5084864;28;20355;-69
2023/03/30 04:08:46;;;;;;;2.55;1.17;;;;;;;12.83;84.75;100387.00;5086023;28;20123;-63
2023/03/30 04:11:11;;;;;;;2.03;1.10;;;;;;;13.04;85.50;100388.91;5085958;28;20055;-66
2023/03/30 04:13:38;;;;;;;1.77;1.08;;;;;;;13.03;87.00;100387.25;5085416;28;20109;-67
2023/03/30 04:16:04;;;;;;;2.88;1.15;;;;;;;12.93;88.66;100382.44;5084336;28;20035;-68
2023/03/30 04:18:33;;;;;;;1.90;1.17;;;;;;;12.89;90.05;100385.97;5084581;28;20029;-68
2023/03/30 04:21:03;;;;;;;2.58;1.45;;;;;;;12.72;94.30;100386.00;5087627;28;20020;-68
2023/03/30 04:23:32;;;;;;;2.40;1.27;;;;;;;12.57;96.27;100383.06;5088995;28;20020;-69
2023/03/30 04:26:00;;;;;;;2.35;1.30;;;;;;;12.36;98.25;100366.25;5088824;28;20077;-69
2023/03/30 04:28:28;;;;;;;2.42;1.30;;;;;;;12.22;98.80;100361.41;5087254;28;20031;-68
2023/03/30 04:30:58;;;;;;;3.42;1.30;;;;;;;12.25;98.41;100369.97;5077913;28;20080;-64
2023/03/30 04:33:24;;;;;;;2.85;1.35;;;;;;;12.16;99.06;100360.47;5089290;28;20365;-69
2023/03/30 04:35:49;;;;;;;2.95;1.40;;;;;;;12.06;100.00;100366.66;5088531;28;20162;-69
2023/03/30 04:38:20;;;;;;;2.20;1.30;;;;;;;12.00;100.00;100372.34;5088747;28;20102;-69
2023/03/30 04:40:46;;;;;;;2.42;1.40;;;;;;;12.01;100.00;100360.22;5088947;28;20040;-65
2023/03/30 04:43:12;;;;;;;2.97;1.30;;;;;;;11.96;100.00;100352.72;5088000;28;20154;-70
2023/03/30 04:45:38;;;;;;;3.00;1.50;;;;;;;11.94;100.00;100360.41;5069700;28;20071;-68
2023/03/30 04:48:03;;;;;;;4.30;1.40;;;;;;;11.93;100.00;100350.50;5088634;28;20134;-68
2023/03/30 04:50:29;;;;;;;1.95;1.25;;;;;;;11.92;100.00;100349.66;5089155;28;20054;-63
2023/03/30 04:52:54;;;;;;;3.75;1.60;;;;;;;11.86;100.00;100358.06;5087793;28;20028;-70
2023/03/30 04:55:19;;;;;;;2.45;1.52;;;;;;;11.84;100.00;100358.34;5071425;28;20028;-70
2023/03/30 04:57:45;;;;;;;3.15;1.40;;;;;;;11.81;100.00;100364.31;5081487;28;20453;-69
2023/03/30 05:00:12;;;;;;;3.30;1.30;;;;;;;11.79;100.00;100363.72;5089194;28;20051;-63
2023/03/30 05:02:37;;;;;;;2.58;1.35;;;;;;;11.79;100.00;100384.91;5088060;28;20024;-66
2023/03/30 05:05:03;;;;;;;2.20;1.42;;;;;;;11.74;100.00;100396.66;5086535;28;20034;-67
2023/03/30 05:07:28;;;;;;;2.83;1.35;;;;;;;11.70;100.00;100407.31;5070077;28;20031;-69
2023/03/30 05:09:53;;;;;;;3.40;1.48;;;;;;;11.63;100.00;100400.31;5088154;28;20036;-70
2023/03/30 05:12:19;;;;;;;3.25;1.20;;;;;;;11.60;100.00;100411.81;5087215;28;20161;-69
2023/03/30 05:14:44;;;;;;;3.60;1.50;;;;;;;11.55;100.00;100409.81;5087750;28;20081;-65
2023/03/30 05:17:10;;;;;;;3.75;1.90;;;;;;;11.47;100.00;100403.88;5088241;28;20027;-69
2023/03/30 05:19:35;;;;;;;3.05;1.50;;;;;;;11.52;100.00;100404.81;5086551;28;20097;-69
2023/03/30 05:22:01;;;;;;;3.08;1.77;;;;;;;11.43;100.00;100400.78;5087222;28;20038;-66
2023/03/30 05:24:26;;;;;;;3.65;1.70;;;;;;;11.44;100.00;100414.28;5085910;28;20024;-65
2023/03/30 05:26:51;;;;;;;3.42;1.50;;;;;;;11.39;100.00;100407.88;5086588;28;20035;-69
2023/03/30 05:29:16;;;;;;;2.97;1.40;;;;;;;11.53;100.00;100411.16;5087166;28;20032;-68
2023/03/30 05:31:42;;;;;;;2.30;1.27;;;;;;;11.39;100.00;100421.59;5087026;28;20106;-69
2023/03/30 05:34:07;;;;;;;2.83;1.38;;;;;;;11.38;100.00;100419.94;5088014;28;20024;-66
2023/03/30 05:36:34;;;;;;;2.63;1.38;;;;;;;11.43;100.00;100422.78;5086777;28;20398;-68
2023/03/30 05:39:00;;;;;;;3.97;1.35;;;;;;;11.34;100.00;100424.25;5088242;28;20036;-62
2023/03/30 05:41:26;;;;;;;3.58;1.50;;;;;;;11.33;100.00;100411.59;5084631;28;20032;-68
2023/03/30 05:43:52;;;;;;;3.80;1.83;;;;;;;11.29;100.00;100408.50;5086832;28;20024;-66
2023/03/30 05:46:17;;;;;;;2.67;1.42;;;;;;;11.33;100.00;100411.59;5083128;28;20052;-67
2023/03/30 05:48:42;;;;;;;4.03;1.55;;;;;;;11.26;100.00;100416.44;5085541;28;20073;-68
2023/03/30 05:51:08;;;;;;;3.25;1.80;;;;;;;11.31;100.00;100417.34;5087461;28;20028;-65
2023/03/30 05:53:33;;;;;;;5.00;2.00;;;;;;;11.29;100.00;100419.50;5086920;28;20429;-68
2023/03/30 05:55:58;;;;;;;3.60;1.60;;;;;;;11.25;100.00;100421.06;5088447;28;20034;-67
2023/03/30 05:58:23;;;;;;;5.10;2.10;;;;;;;11.22;100.00;100412.50;5087269;28;20023;-69
2023/03/30 06:00:49;;;;;;;3.67;2.08;;;;;;;11.27;100.00;100418.94;5086589;28;20115;-69
2023/03/30 06:03:14;;;;;;;2.70;1.90;;;;;;;11.21;100.00;100422.66;5076688;28;20131;-67
2023/03/30 06:05:42;;;;;;;4.70;2.00;;;;;;;11.25;100.00;100422.97;5082069;28;20086;-69
2023/03/30 06:08:08;;;;;;;4.60;1.80;;;;;;;11.27;100.00;100413.44;5085203;28;20043;-69
2023/03/30 06:10:34;;;;;;;3.47;1.63;;;;;;;11.28;100.00;100423.34;5086876;28;20029;-68
2023/03/30 06:13:00;;;;;;;4.90;1.83;;;;;;;11.20;100.00;100420.13;5085982;28;20081;-66
2023/03/30 06:15:26;;;;;;;3.83;1.50;;;;;;;11.24;100.00;100416.66;5085186;28;20024;-64
2023/03/30 06:17:51;;;;;;;4.65;1.80;;;;;;;11.18;100.00;100420.41;5086346;28;20038;-66
2023/03/30 06:20:20;;;;;;;4.03;1.85;;;;;;;11.23;100.00;100419.66;5086935;28;20024;-69
2023/03/30 06:22:46;;;;;;;4.00;1.90;;;;;;;11.26;100.00;100424.69;5085264;28;20126;-68
2023/03/30 06:25:12;;;;;;;2.72;1.58;;;;;;;11.26;100.00;100422.75;5086753;28;20052;-69
2023/03/30 06:27:38;;;;;;;3.20;1.60;;;;;;;11.27;100.00;100434.59;5087337;28;20102;-69
2023/03/30 06:30:04;;;;;;;2.75;1.67;;;;;;;11.31;100.00;100431.09;5084760;28;20550;-68
2023/03/30 06:32:29;;;;;;;3.67;1.65;;;;;;;11.31;100.00;100435.78;5086821;28;20028;-67
2023/03/30 06:34:54;;;;;;;4.13;1.58;;;;;;;11.33;100.00;100437.19;5086666;28;20108;-62
2023/03/30 06:37:20;;;;;;;5.63;2.00;;;;;;;11.36;100.00;100441.38;5085347;28;20038;-69
2023/03/30 06:39:45;;;;;;;4.35;2.08;;;;;;;11.40;100.00;100454.38;5085798;28;20024;-69
2023/03/30 06:42:11;;;;;;;3.03;1.50;;;;;;;11.46;100.00;100455.31;5084056;28;20024;-69
2023/03/30 06:44:36;;;;;;;4.93;1.80;;;;;;;11.53;100.00;100457.91;5080535;28;20146;-66
2023/03/30 06:47:03;;;;;;;4.22;1.60;;;;;;;11.63;100.00;100456.16;5085938;28;20107;-68
2023/03/30 06:49:29;;;;;;;3.75;1.70;;;;;;;11.60;100.00;100461.31;5086987;28;20044;-68
2023/03/30 06:51:55;;;;;;;4.07;1.50;;;;;;;11.52;100.00;100459.00;5087152;28;20142;-69
2023/03/30 06:54:20;;;;;;;4.03;1.80;;;;;;;11.54;100.00;100448.56;5067840;28;20036;-69
2023/03/30 06:56:46;;;;;;;4.65;1.83;;;;;;;11.58;100.00;100455.25;5086750;28;20030;-68
2023/03/30 06:59:12;;;;;;;6.03;2.05;;;;;;;11.41;100.00;100446.97;5083439;28;20090;-68
2023/03/30 07:01:37;;;;;;;4.68;1.70;;;;;;;11.35;100.00;100457.03;5082382;28;20024;-67
2023/03/30 07:04:03;;;;;;;4.00;2.20;;;;;;;11.48;100.00;100455.06;5082641;28;20028;-64
2023/03/30 07:06:28;;;;;;;4.93;1.98;;;;;;;11.65;100.00;100455.91;5085414;28;20043;-69
2023/03/30 07:08:53;;;;;;;4.97;2.63;;;;;;;11.87;100.00;100454.16;5086353;28;20032;-64
2023/03/30 07:11:19;;;;;;;4.38;2.20;;;;;;;12.16;100.00;100454.06;5066762;28;20115;-68
2023/03/30 07:13:44;;;;;;;5.50;2.20;;;;;;;12.30;100.00;100460.91;5085999;28;20036;-68
2023/03/30 07:16:10;;;;;;;4.40;1.55;;;;;;;12.39;100.00;100462.16;5086861;28;20021;-67
2023/03/30 07:18:35;;;;;;;4.93;1.60;;;;;;;12.43;100.00;100465.25;5085809;28;20016;-63
2023/03/30 07:21:00;;;;;;;4.38;1.70;;;;;;;12.58;100.00;100465.47;5084955;28;20016;-67
2023/03/30 07:23:26;;;;;;;5.70;1.80;;;;;;;12.95;100.00;100467.63;5068089;28;20107;-68
2023/03/30 07:25:51;;;;;;;5.00;1.70;;;;;;;13.13;98.08;100470.06;5085146;28;20047;-68
2023/03/30 07:28:17;;;;;;;4.88;1.45;;;;;;;13.48;98.35;100466.06;5084425;28;20087;-68
2023/03/30 07:30:42;;;;;;;5.05;1.60;;;;;;;13.95;94.91;100477.31;5085953;28;20028;-68
2023/03/30 07:33:07;;;;;;;3.75;1.45;;;;;;;13.91;94.25;100481.69;5086635;28;20086;-67
2023/03/30 07:35:33;;;;;;;3.70;1.75;;;;;;;13.69;94.06;100483.69;5084490;28;20052;-69
2023/03/30 07:37:58;;;;;;;4.68;1.85;;;;;;;13.49;95.26;100485.13;5086075;28;20036;-67
2023/03/30 07:40:24;;;;;;;5.90;1.92;;;;;;;13.28;97.12;100477.72;5086117;28;20046;-68
2023/03/30 07:42:49;;;;;;;4.80;2.08;;;;;;;13.26;96.35;100479.06;5084297;28;20036;-69
2023/03/30 07:45:15;;;;;;;6.35;2.35;;;;;;;13.02;97.33;100490.31;5085197;28;20044;-68
2023/03/30 07:47:41;;;;;;;6.00;1.80;;;;;;;12.97;96.34;100477.28;5082265;28;20036;-68
2023/03/30 07:50:07;;;;;;;5.90;1.73;;;;;;;12.94;97.72;100491.59;5086518;28;20016;-69
2023/03/30 07:52:33;;;;;;;4.95;1.70;;;;;;;12.87;97.86;100492.84;5082949;28;20031;-67
2023/03/30 07:54:58;;;;;;;5.03;1.70;;;;;;;12.80;98.74;100501.31;5086145;28;20371;-69
2023/03/30 07:57:23;;;;;;;4.28;1.80;;;;;;;12.91;98.48;100510.56;5088372;28;20024;-69
2023/03/30 07:59:49;;;;;;;4.20;1.48;;;;;;;12.90;98.57;100508.91;5089284;28;20085;-64
2023/03/30 08:02:15;;;;;;;4.97;1.60;;;;;;;12.97;98.96;100510.38;5088857;28;20028;-68
2023/03/30 08:04:42;;;;;;;6.28;2.28;;;;;;;13.14;97.71;100506.75;5084369;28;20028;-65
2023/03/30 08:07:08;;;;;;;4.65;1.60;;;;;;;13.11;97.63;100513.59;5082271;28;20347;-69
2023/03/30 08:09:34;;;;;;;4.72;1.63;;;;;;;13.17;97.24;100518.06;5071152;28;20031;-65
2023/03/30 08:12:00;;;;;;;5.47;1.77;;;;;;;13.19;95.40;100515.91;5081713;28;20068;-68
2023/03/30 08:14:26;;;;;;;4.00;1.60;;;;;;;13.21;96.48;100512.88;5081203;28;20067;-68
2023/03/30 08:16:53;;;;;;;5.13;1.58;;;;;;;13.44;95.57;100515.44;5081932;28;20024;-68
2023/03/30 08:19:19;;;;;;;5.97;1.95;;;;;;;13.63;93.88;100523.34;5080413;28;20033;-64
2023/03/30 08:21:45;;;;;;;5.47;1.80;;;;;;;13.64;93.05;100506.56;5086215;28;20067;-68
2023/03/30 08:24:10;;;;;;;5.68;1.90;;;;;;;13.63;92.66;100520.59;5070469;28;20048;-68
2023/03/30 08:26:37;;;;;;;6.75;2.20;;;;;;;13.77;90.40;100527.38;5085796;28;20389;-67
2023/03/30 08:29:02;;;;;;;5.63;2.10;;;;;;;13.75;91.48;100526.81;5077815;28;20028;-67
2023/03/30 08:31:31;;;;;;;6.18;2.00;;;;;;;13.71;90.85;100533.94;5080433;28;20630;-67
2023/03/30 08:33:56;;;;;;;6.25;2.13;;;;;;;13.67;90.31;100527.25;5071140;28;20193;-67
2023/03/30 08:36:22;;;;;;;6.80;2.00;;;;;;;13.68;90.50;100518.72;5079415;28;20024;-67
2023/03/30 08:38:47;;;;;;;5.00;1.90;;;;;;;13.90;89.43;100528.91;5073329;28;20046;-69
2023/03/30 08:41:39;;;;;;;6.70;2.20;;;;;;;14.10;88.71;100518.06;5069332;28;20482;-67
2023/03/30 08:44:23;;;;;;;6.53;2.30;;;;;;;14.35;88.25;100525.72;5084122;28;20043;-65
2023/03/30 08:46:50;;;;;;;5.68;1.83;;;;;;;14.55;84.82;100516.81;5083102;28;20134;-68
2023/03/30 08:49:18;;;;;;;6.72;1.92;;;;;;;15.09;82.93;100512.97;5082726;28;20043;-67
2023/03/30 08:51:45;;;;;;;;;;;;;;;15.49;83.42;100520.63;5075521;28;20029;-68
2023/03/30 08:54:19;;;;;;;7.38;1.90;;;;;;;15.24;78.36;100522.16;5080243;28;19916;-68
2023/03/30 08:57:00;;;;;;;6.10;2.00;;;;;;;14.91;81.06;100522.56;5087448;28;20490;-69
2023/03/30 08:59:28;;;;;;;5.32;1.75;;;;;;;14.85;80.50;100530.00;5083538;28;20039;-64
2023/03/30 09:01:58;;;;;;;6.55;1.80;;;;;;;14.75;78.86;100535.44;5081484;28;20034;-68
2023/03/30 09:04:41;;;;;;;5.28;2.35;;;;;;;14.89;78.95;100527.50;5073491;28;20028;-66
2023/03/30 09:07:12;;;;;;;4.78;2.03;;;;;;;15.22;80.31;100527.16;5077923;28;20039;-66
2023/03/30 09:09:44;;;;;;;6.07;2.10;;;;;;;15.30;78.70;100520.25;5072010;28;20070;-67
2023/03/30 09:12:20;;;;;;;5.60;1.90;;;;;;;14.93;76.41;100515.66;5075477;28;20020;-64
2023/03/30 09:14:52;;;;;;;6.32;2.00;;;;;;;14.59;78.14;100522.59;5074547;28;20043;-68
2023/03/30 09:17:22;;;;;;;6.35;2.50;;;;;;;14.44;76.83;100540.69;5082297;28;20147;-63
2023/03/30 09:19:52;;;;;;;6.50;2.28;;;;;;;14.27;77.73;100537.25;5086548;28;20142;-68
2023/03/30 09:22:19;;;;;;;6.13;2.10;;;;;;;14.11;80.99;100552.03;5078447;28;20028;-64
2023/03/30 09:24:45;;;;;;;5.38;2.10;;;;;;;14.14;80.14;100549.56;5072445;28;20024;-66
2023/03/30 09:27:17;;;;;;;4.85;1.90;;;;;;;14.06;79.94;100550.03;5070443;28;20047;-68
2023/03/30 09:29:47;;;;;;;6.53;1.92;;;;;;;13.90;79.29;100551.81;5075425;28;20046;-63
2023/03/30 09:32:37;;;;;;;5.15;2.10;;;;;;;14.55;77.16;100552.72;5077295;28;20489;-65
2023/03/30 09:35:17;;;;;;;6.97;2.25;;;;;;;14.47;78.30;100555.94;5070744;28;20044;-68
2023/03/30 09:37:43;;;;;;;6.10;2.13;;;;;;;16.03;72.66;100559.84;5075510;28;20032;-65
2023/03/30 09:40:25;;;;;;;5.05;1.75;;;;;;;18.46;66.09;100555.03;5073691;28;20391;-69
2023/03/30 09:43:36;;;;;;;5.40;2.00;;;;;;;18.52;61.73;100563.03;5085445;28;20066;-66
2023/03/30 09:46:06;;;;;;;6.22;2.00;;;;;;;17.20;63.64;100564.53;5048786;28;20064;-65
2023/03/30 09:48:51;;;;;;;7.85;2.58;;;;;;;16.78;67.16;100579.59;5078113;28;20024;-64
2023/03/30 09:51:19;;;;;;;7.00;1.95;;;;;;;17.68;63.68;100573.25;5084794;28;20137;-68
2023/03/30 09:53:47;;;;;;;6.28;2.17;;;;;;;17.71;60.72;100563.53;5084938;28;20032;-67
2023/03/30 09:56:19;;;;;;;6.72;2.35;;;;;;;17.47;62.42;100580.84;5085763;28;20028;-67
2023/03/30 09:58:45;;;;;;;6.72;2.40;;;;;;;17.38;62.47;100566.69;5081649;28;20024;-64
2023/03/30 10:01:15;;;;;;;6.10;1.90;;;;;;;17.39;60.74;100578.66;5082833;28;20708;-64
2023/03/30 10:03:42;;;;;;;5.78;1.92;;;;;;;17.81;62.48;100578.22;5085752;28;20038;-64
2023/03/30 10:06:11;;;;;;;6.00;2.17;;;;;;;18.85;58.77;100566.09;5086398;28;20081;-68
2023/03/30 10:08:42;;;;;;;6.43;2.50;;;;;;;18.28;58.46;100584.34;5087177;28;20028;-67
2023/03/30 10:11:07;;;;;;;6.45;2.45;;;;;;;17.94;60.73;100579.53;5074208;28;20470;-68
2023/03/30 10:13:37;;;;;;;5.63;1.88;;;;;;;17.14;62.25;100587.06;5074316;28;20035;-69
2023/03/30 10:16:06;;;;;;;7.57;2.60;;;;;;;16.36;65.03;100590.91;5079499;28;20015;-68
2023/03/30 10:18:41;;;;;;;7.72;2.05;;;;;;;16.07;66.77;100591.44;5086165;28;20051;-64
2023/03/30 10:21:18;;;;;;;7.18;2.30;;;;;;;15.70;69.81;100599.06;5079871;28;20124;-67
2023/03/30 10:23:46;;;;;;;6.30;2.10;;;;;;;15.51;69.95;100604.19;5081006;28;20024;-68
2023/03/30 10:26:20;;;;;;;8.05;2.58;;;;;;;15.81;67.87;100593.31;5085601;28;20020;-68
2023/03/30 10:28:56;;;;;;;7.60;2.33;;;;;;;16.54;66.28;100600.66;5085049;28;20048;-68
2023/03/30 10:31:23;;;;;;;7.28;2.28;;;;;;;17.25;63.58;100588.69;5085977;28;20520;-68
2023/03/30 10:33:53;;;;;;;6.50;2.28;;;;;;;18.95;57.82;100591.03;5085601;28;20311;-68
2023/03/30 10:36:19;;;;;;;6.15;2.40;;;;;;;18.84;57.24;100595.03;5083812;28;20028;-67
2023/03/30 10:38:45;;;;;;;7.15;2.30;;;;;;;18.27;57.52;100596.56;5085351;28;20042;-69
2023/03/30 10:41:22;;;;;;;7.18;2.20;;;;;;;17.84;62.32;100612.91;5067189;28;20052;-66
2023/03/30 10:43:50;;;;;;;6.45;2.20;;;;;;;17.00;60.16;100587.63;5084364;28;20135;-67
2023/03/30 10:46:23;;;;;;;6.28;2.03;;;;;;;17.17;59.62;100597.56;5085514;28;20089;-67
2023/03/30 10:49:09;;;;;;;6.32;2.22;;;;;;;16.57;61.76;100600.06;5084353;28;20059;-64
2023/03/30 10:51:54;;;;;;;6.38;2.10;;;;;;;16.10;63.15;100614.97;5085181;28;20072;-67
2023/03/30 10:54:38;;;;;;;6.05;1.85;;;;;;;15.98;64.80;100611.63;5072541;28;20055;-67
2023/03/30 10:57:13;;;;;;;6.43;2.20;;;;;;;15.62;67.82;100610.66;5065488;28;20024;-68
2023/03/30 11:00:08;;;;;;;6.85;2.05;;;;;;;17.05;64.08;100601.47;5063912;28;20449;-68
2023/03/30 11:03:11;;;;;;;6.78;2.10;;;;;;;18.69;58.71;100586.84;5045896;28;20500;-66
2023/03/30 11:05:41;;;;;;;5.15;1.85;;;;;;;19.17;55.07;100599.75;5083912;28;20024;-69
2023/03/30 11:08:15;;;;;;;7.13;2.20;;;;;;;20.02;54.16;100601.00;5081330;28;20390;-67
2023/03/30 11:10:45;;;;;;;5.47;1.83;;;;;;;19.63;51.32;100598.44;5071932;28;20136;-68
2023/03/30 11:13:21;;;;;;;5.32;1.88;;;;;;;18.24;56.08;100613.81;5085177;28;20409;-66
2023/03/30 11:16:01;;;;;;;5.03;2.03;;;;;;;17.43;58.77;100612.22;5082759;28;20043;-68
2023/03/30 11:18:45;;;;;;;5.63;1.70;;;;;;;18.44;57.43;100610.06;5080261;28;20025;-66
2023/03/30 11:21:19;;;;;;;5.10;2.03;;;;;;;20.62;52.76;100606.78;5071546;28;20028;-68
2023/03/30 11:23:53;;;;;;;5.03;2.00;;;;;;;22.09;49.29;100601.47;5086153;28;20024;-69
2023/03/30 11:26:37;;;;;;;6.07;2.08;;;;;;;21.01;50.51;100602.78;5084904;28;20040;-64
2023/03/30 11:29:27;;;;;;;6.22;1.90;;;;;;;19.51;51.91;100592.41;5067102;28;20048;-69
2023/03/30 11:32:01;;;;;;;6.03;1.83;;;;;;;18.58;54.95;100595.22;5070724;28;20024;-69
2023/03/30 11:34:34;;;;;;;5.07;1.70;;;;;;;17.71;56.88;100596.84;5071029;28;20032;-65
2023/03/30 11:37:15;;;;;;;6.28;2.15;;;;;;;17.14;59.28;100600.94;5088603;28;20028;-66